Time;durP1;ratioP1;P1;durP2;ratioP2;P2;SDS_P1;SDS_P2;PMS_P1;PMS_P2;Temp;Humidity;BMP_temperature;BMP_pressure;BME280_temperature;BME280_humidity;BME280_pressure;Samples;Min_cycle;Max_cycle;Signal;HPM_P1;HPM_P2
2022/08/22 00:01:55;;;;;;;7.68;4.95;;;;;;;;;;5048839;28;20105;-68
2022/08/22 00:04:37;;;;;;;4.95;4.32;;;;;;;;;;5052597;28;20072;-68
2022/08/22 00:07:32;;;;;;;7.40;4.13;;;;;;;;;;5052180;28;20052;-69
2022/08/22 00:10:02;;;;;;;11.63;4.72;;;;;;;;;;5050160;28;20051;-68
2022/08/22 00:12:28;;;;;;;6.13;4.20;;;;;;;;;;5064197;28;20529;-68
2022/08/22 00:15:09;;;;;;;5.85;4.95;;;;;;;;;;5071711;28;20045;-68
2022/08/22 00:17:56;;;;;;;6.65;4.47;;;;;;;;;;5032714;28;20133;-68
2022/08/22 00:20:45;;;;;;;6.72;4.32;;;;;;;;;;5032300;28;20144;-68
2022/08/22 00:23:44;;;;;;;5.70;4.60;;;;;;;;;;5050366;28;20052;-67
2022/08/22 00:26:23;;;;;;;6.70;4.22;;;;;;;;;;5072114;28;20060;-68
2022/08/22 00:28:56;;;;;;;6.05;4.55;;;;;;;;;;5071939;28;20040;-69
2022/08/22 00:31:50;;;;;;;8.82;6.50;;;;;;;;;;5061251;28;20115;-69
2022/08/22 00:34:28;;;;;;;10.90;6.97;;;;;;;;;;5043987;28;20094;-69
2022/08/22 00:37:10;;;;;;;8.27;6.15;;;;;;;;;;5071436;28;20041;-68
2022/08/22 00:39:58;;;;;;;;;;;;;;;;;;5072489;28;20044;-68
2022/08/22 00:42:57;;;;;;;6.28;4.57;;;;;;;;;;5072095;28;19921;-68
2022/08/22 00:45:28;;;;;;;5.28;4.60;;;;;;;;;;5060544;28;20040;-68
2022/08/22 00:48:15;;;;;;;5.95;4.57;;;;;;;;;;5050404;28;20064;-68
2022/08/22 00:50:59;;;;;;;7.13;4.70;;;;;;;;;;5051976;28;20128;-68
2022/08/22 00:53:49;;;;;;;6.70;5.00;;;;;;;;;;5049748;28;20483;-68
2022/08/22 00:56:40;;;;;;;9.23;5.85;;;;;;;;;;5053516;28;20040;-69
2022/08/22 00:59:35;;;;;;;7.07;5.32;;;;;;;;;;5069703;28;20442;-69
2022/08/22 01:02:34;;;;;;;7.20;5.35;;;;;;;;;;5017501;28;20156;-68
2022/08/22 01:05:16;;;;;;;8.55;5.03;;;;;;;;;;5050727;28;20617;-68
2022/08/22 01:07:46;;;;;;;10.73;5.40;;;;;;;;;;5061107;28;20132;-68
2022/08/22 01:10:51;;;;;;;7.93;5.43;;;;;;;;;;5071183;28;20747;-68
2022/08/22 01:13:28;;;;;;;6.25;5.13;;;;;;;;;;5029238;28;20083;-69
2022/08/22 01:16:26;;;;;;;6.28;5.43;;;;;;;;;;5062814;28;20052;-69
2022/08/22 01:19:07;;;;;;;8.82;5.30;;;;;;;;;;5062219;28;20054;-69
2022/08/22 01:21:46;;;;;;;8.23;5.40;;;;;;;;;;5014350;28;20500;-69
2022/08/22 01:24:31;;;;;;;12.30;5.13;;;;;;;;;;5031278;28;20053;-68
2022/08/22 01:27:14;;;;;;;6.68;5.32;;;;;;;;;;5030603;28;20049;-69
2022/08/22 01:30:07;;;;;;;13.02;5.35;;;;;;;;;;5059976;28;20041;-68
2022/08/22 01:32:42;;;;;;;6.32;5.13;;;;;;;;;;5051144;28;20041;-69
2022/08/22 01:35:19;;;;;;;6.00;5.10;;;;;;;;;;5050249;28;20064;-69
2022/08/22 01:38:07;;;;;;;7.47;5.47;;;;;;;;;;5050851;28;20056;-69
2022/08/22 01:41:09;;;;;;;5.50;4.97;;;;;;;;;;5051140;28;20036;-68
2022/08/22 01:43:47;;;;;;;7.70;5.47;;;;;;;;;;5042389;28;20087;-68
2022/08/22 01:46:31;;;;;;;12.13;5.70;;;;;;;;;;5050566;28;20067;-68
2022/08/22 01:49:03;;;;;;;9.02;5.35;;;;;;;;;;5050296;28;20063;-69
2022/08/22 01:51:47;;;;;;;;;;;;;;;;;;5061806;28;20478;-69
2022/08/22 01:54:24;;;;;;;7.82;5.15;;;;;;;;;;5070309;28;19977;-68
2022/08/22 01:56:49;;;;;;;9.95;4.85;;;;;;;;;;5070585;28;20052;-68
2022/08/22 01:59:31;;;;;;;11.50;5.10;;;;;;;;;;5069853;28;20087;-68
2022/08/22 02:02:03;;;;;;;6.68;5.35;;;;;;;;;;5062435;28;20041;-69
2022/08/22 02:04:43;;;;;;;7.95;4.32;;;;;;;;;;5070300;28;20556;-69
2022/08/22 02:07:50;;;;;;;6.88;4.95;;;;;;;;;;5069937;28;20170;-70
2022/08/22 02:10:39;;;;;;;6.55;4.55;;;;;;;;;;5070459;28;20052;-68
2022/08/22 02:13:20;;;;;;;6.43;4.45;;;;;;;;;;5061781;28;20139;-68
2022/08/22 02:15:52;;;;;;;7.43;4.57;;;;;;;;;;5064337;28;20044;-68
2022/08/22 02:18:28;;;;;;;7.22;4.45;;;;;;;;;;5050153;28;20051;-68
2022/08/22 02:21:09;;;;;;;6.88;4.47;;;;;;;;;;5049514;28;20129;-68
2022/08/22 02:24:03;;;;;;;8.75;4.50;;;;;;;;;;5048440;28;20049;-69
2022/08/22 02:26:52;;;;;;;5.55;4.63;;;;;;;;;;5060626;28;20418;-68
2022/08/22 02:29:27;;;;;;;5.57;4.40;;;;;;;;;;5069596;28;20110;-68
2022/08/22 02:32:05;;;;;;;7.43;4.57;;;;;;;;;;5053540;28;20247;-68
2022/08/22 02:34:56;;;;;;;7.70;4.65;;;;;;;;;;5048717;28;20056;-68
2022/08/22 02:37:39;;;;;;;7.37;4.50;;;;;;;;;;5054140;28;20779;-69
2022/08/22 02:40:33;;;;;;;7.25;4.80;;;;;;;;;;5069830;28;20417;-68
2022/08/22 02:43:11;;;;;;;6.72;5.38;;;;;;;;;;5069170;28;20072;-68
2022/08/22 02:45:58;;;;;;;7.30;5.70;;;;;;;;;;5057175;28;20371;-68
2022/08/22 02:48:57;;;;;;;8.27;5.47;;;;;;;;;;5052936;28;20049;-68
2022/08/22 02:51:38;;;;;;;8.95;5.40;;;;;;;;;;5069572;28;20040;-69
2022/08/22 02:54:45;;;;;;;5.70;4.95;;;;;;;;;;5069387;28;20055;-68
2022/08/22 02:57:13;;;;;;;8.57;4.82;;;;;;;;;;4979454;28;20042;-69
2022/08/22 03:00:17;;;;;;;7.28;5.88;;;;;;;;;;5053867;28;20144;-68
2022/08/22 03:02:58;;;;;;;7.40;5.45;;;;;;;;;;5029754;28;20149;-68
2022/08/22 03:05:35;;;;;;;7.40;5.50;;;;;;;;;;5029149;28;20401;-68
2022/08/22 03:08:15;;;;;;;7.63;5.32;;;;;;;;;;5066654;28;20510;-69
2022/08/22 03:11:14;;;;;;;8.02;5.85;;;;;;;;;;5069414;28;20105;-69
2022/08/22 03:13:58;;;;;;;9.55;5.93;;;;;;;;;;5033118;28;20098;-68
2022/08/22 03:16:53;;;;;;;7.68;5.13;;;;;;;;;;5058207;28;20128;-68
2022/08/22 03:19:30;;;;;;;6.38;5.55;;;;;;;;;;5059140;28;20048;-69
2022/08/22 03:22:10;;;;;;;6.95;5.50;;;;;;;;;;5068052;28;20059;-68
2022/08/22 03:24:55;;;;;;;10.23;5.05;;;;;;;;;;5069086;28;20045;-69
2022/08/22 03:27:32;;;;;;;7.28;4.97;;;;;;;;;;5069116;28;20052;-69
2022/08/22 03:30:06;;;;;;;7.78;5.55;;;;;;;;;;5053403;28;20086;-69
2022/08/22 03:32:55;;;;;;;9.55;8.55;;;;;;;;;;5042680;28;20049;-69
2022/08/22 03:35:23;;;;;;;8.75;5.55;;;;;;;;;;5051910;28;20094;-68
2022/08/22 03:37:55;;;;;;;7.35;4.68;;;;;;;;;;5053137;28;20053;-69
2022/08/22 03:40:25;;;;;;;9.57;5.30;;;;;;;;;;5047079;28;20065;-68
2022/08/22 03:43:09;;;;;;;7.38;4.43;;;;;;;;;;5067191;28;20052;-68
2022/08/22 03:45:41;;;;;;;7.35;4.57;;;;;;;;;;5034512;28;20514;-70
2022/08/22 03:48:28;;;;;;;5.70;4.10;;;;;;;;;;5051684;28;20049;-69
2022/08/22 03:51:12;;;;;;;4.55;4.15;;;;;;;;;;5051622;28;20415;-69
2022/08/22 03:53:50;;;;;;;8.15;4.20;;;;;;;;;;5058637;28;20119;-69
2022/08/22 03:56:24;;;;;;;5.22;4.72;;;;;;;;;;5053962;28;20420;-69
2022/08/22 03:59:04;;;;;;;5.65;5.03;;;;;;;;;;5072910;28;20044;-68
2022/08/22 04:01:57;;;;;;;5.07;4.20;;;;;;;;;;5057498;28;20060;-69
2022/08/22 04:04:59;;;;;;;5.82;5.00;;;;;;;;;;5056799;28;20406;-68
2022/08/22 04:07:35;;;;;;;6.53;5.03;;;;;;;;;;5053898;28;20135;-69
2022/08/22 04:10:19;;;;;;;10.15;5.35;;;;;;;;;;5072482;28;20040;-68
2022/08/22 04:13:10;;;;;;;6.28;4.43;;;;;;;;;;5066549;28;20079;-68
2022/08/22 04:16:04;;;;;;;10.30;4.43;;;;;;;;;;5038350;28;20041;-69
2022/08/22 04:18:36;;;;;;;4.80;4.32;;;;;;;;;;5052384;28;20053;-69
2022/08/22 04:21:16;;;;;;;;;;;;;;;;;;5052464;28;20044;-69
2022/08/22 04:24:11;;;;;;;6.88;4.68;;;;;;;;;;5046981;28;19924;-69
2022/08/22 04:26:48;;;;;;;6.95;4.25;;;;;;;;;;5060441;28;20113;-69
2022/08/22 04:29:36;;;;;;;14.88;4.35;;;;;;;;;;5071685;28;20246;-68
2022/08/22 04:32:14;;;;;;;6.13;4.10;;;;;;;;;;5055612;28;20044;-68
2022/08/22 04:34:49;;;;;;;6.22;4.78;;;;;;;;;;5051188;28;20525;-68
2022/08/22 04:37:21;;;;;;;7.50;4.18;;;;;;;;;;5070897;28;20094;-69
2022/08/22 04:39:52;;;;;;;6.53;4.40;;;;;;;;;;5072367;28;20516;-69
2022/08/22 04:42:26;;;;;;;7.50;4.17;;;;;;;;;;5072099;28;20048;-69
2022/08/22 04:45:11;;;;;;;5.13;4.20;;;;;;;;;;5071193;28;20044;-68
2022/08/22 04:47:39;;;;;;;11.93;4.88;;;;;;;;;;5043533;28;20096;-69
2022/08/22 04:50:24;;;;;;;7.50;4.72;;;;;;;;;;5069775;28;20037;-68
2022/08/22 04:53:14;;;;;;;4.70;4.30;;;;;;;;;;5071760;28;20066;-68
2022/08/22 04:56:08;;;;;;;8.13;5.00;;;;;;;;;;5069330;28;20044;-69
2022/08/22 04:58:49;;;;;;;8.05;4.32;;;;;;;;;;5034092;28;20082;-69
2022/08/22 05:01:20;;;;;;;8.73;4.38;;;;;;;;;;5061349;28;20045;-69
2022/08/22 05:03:50;;;;;;;6.13;4.60;;;;;;;;;;5051695;28;20494;-69
2022/08/22 05:06:18;;;;;;;5.75;4.50;;;;;;;;;;5051362;28;20103;-69
2022/08/22 05:08:45;;;;;;;6.07;4.20;;;;;;;;;;5057276;28;20036;-69
2022/08/22 05:11:13;;;;;;;7.88;4.20;;;;;;;;;;5070845;28;20049;-68
2022/08/22 05:13:46;;;;;;;9.98;5.55;;;;;;;;;;5071541;28;20041;-68
2022/08/22 05:16:19;;;;;;;6.60;4.47;;;;;;;;;;5061720;28;20482;-68
2022/08/22 05:18:49;;;;;;;4.10;3.80;;;;;;;;;;5050413;28;20053;-69
2022/08/22 05:21:17;;;;;;;11.10;4.85;;;;;;;;;;5061601;28;20133;-69
2022/08/22 05:23:56;;;;;;;5.22;4.40;;;;;;;;;;5071384;28;20048;-69
2022/08/22 05:26:22;;;;;;;5.35;4.15;;;;;;;;;;5071267;28;20114;-68
2022/08/22 05:28:51;;;;;;;7.80;4.20;;;;;;;;;;5071132;28;20495;-69
2022/08/22 05:31:29;;;;;;;8.32;4.65;;;;;;;;;;5052290;28;20048;-69
2022/08/22 05:34:03;;;;;;;7.00;5.00;;;;;;;;;;5067708;28;20052;-68
2022/08/22 05:36:35;;;;;;;5.32;4.78;;;;;;;;;;5070981;28;20080;-68
2022/08/22 05:39:18;;;;;;;5.60;4.70;;;;;;;;;;5070245;28;20052;-69
2022/08/22 05:41:43;;;;;;;7.00;4.53;;;;;;;;;;5063319;28;20044;-69
2022/08/22 05:44:29;;;;;;;3.83;3.42;;;;;;;;;;5070010;28;20044;-69
2022/08/22 05:47:00;;;;;;;6.63;3.80;;;;;;;;;;5054192;28;20109;-70
2022/08/22 05:49:39;;;;;;;6.75;4.10;;;;;;;;;;5081328;28;20044;-69
2022/08/22 05:52:27;;;;;;;3.70;3.17;;;;;;;;;;5050875;28;20049;-69
2022/08/22 05:55:00;;;;;;;4.57;3.60;;;;;;;;;;5070190;28;20068;-69
2022/08/22 05:57:36;;;;;;;11.00;4.07;;;;;;;;;;5051038;28;20064;-69
2022/08/22 06:00:13;;;;;;;6.35;3.70;;;;;;;;;;5070574;28;20043;-70
2022/08/22 06:02:44;;;;;;;5.90;3.63;;;;;;;;;;5034402;28;20077;-68
2022/08/22 06:05:11;;;;;;;3.83;3.22;;;;;;;;;;5068253;28;20104;-69
2022/08/22 06:07:44;;;;;;;3.92;3.45;;;;;;;;;;5070289;28;20244;-69
2022/08/22 06:10:24;;;;;;;6.47;3.72;;;;;;;;;;5070474;28;20036;-69
2022/08/22 06:13:01;;;;;;;4.80;3.75;;;;;;;;;;5070358;28;20044;-69
2022/08/22 06:15:44;;;;;;;3.83;3.40;;;;;;;;;;5047011;28;20049;-69
2022/08/22 06:18:15;;;;;;;6.63;3.22;;;;;;;;;;5050219;28;20088;-69
2022/08/22 06:20:52;;;;;;;3.90;3.55;;;;;;;;;;5050150;28;20407;-70
2022/08/22 06:23:40;;;;;;;3.95;3.40;;;;;;;;;;5049714;28;20098;-68
2022/08/22 06:26:07;;;;;;;4.65;3.70;;;;;;;;;;5058702;28;20055;-68
2022/08/22 06:28:38;;;;;;;7.75;4.07;;;;;;;;;;5069868;28;20040;-68
2022/08/22 06:31:06;;;;;;;5.47;4.38;;;;;;;;;;5061128;28;20102;-69
2022/08/22 06:33:37;;;;;;;7.85;5.68;;;;;;;;;;5050009;28;20573;-69
2022/08/22 06:36:29;;;;;;;10.30;7.00;;;;;;;;;;5049917;28;20045;-68
2022/08/22 06:39:15;;;;;;;8.27;6.45;;;;;;;;;;5068974;28;20425;-68
2022/08/22 06:42:12;;;;;;;8.48;6.07;;;;;;;;;;5069895;28;20067;-69
2022/08/22 06:44:42;;;;;;;8.82;7.15;;;;;;;;;;5053006;28;20127;-68
2022/08/22 06:47:16;;;;;;;9.63;7.30;;;;;;;;;;5051105;28;20049;-69
2022/08/22 06:49:44;;;;;;;10.45;6.97;;;;;;;;;;5064355;28;20075;-68
2022/08/22 06:52:26;;;;;;;8.35;7.30;;;;;;;;;;5069585;28;20133;-69
2022/08/22 06:54:59;;;;;;;11.27;6.35;;;;;;;;;;5069380;28;20059;-69
2022/08/22 06:57:36;;;;;;;11.27;6.20;;;;;;;;;;5065560;28;20055;-68
2022/08/22 07:00:07;;;;;;;9.82;5.80;;;;;;;;;;5066897;28;20114;-69
2022/08/22 07:02:42;;;;;;;7.35;5.75;;;;;;;;;;5029773;28;20060;-69
2022/08/22 07:05:18;;;;;;;9.90;5.50;;;;;;;;;;5028812;28;20140;-70
2022/08/22 07:07:44;;;;;;;10.18;5.93;;;;;;;;;;5029600;28;20053;-69
2022/08/22 07:10:12;;;;;;;9.13;5.50;;;;;;;;;;5047126;28;20091;-69
2022/08/22 07:12:44;;;;;;;6.05;4.90;;;;;;;;;;5069487;28;20044;-68
2022/08/22 07:15:33;;;;;;;6.78;5.00;;;;;;;;;;5067855;28;20061;-68
2022/08/22 07:18:08;;;;;;;6.50;5.18;;;;;;;;;;5049376;28;20119;-68
2022/08/22 07:20:43;;;;;;;5.50;4.40;;;;;;;;;;5048090;28;20103;-69
2022/08/22 07:23:12;;;;;;;10.05;4.90;;;;;;;;;;5067198;28;20538;-68
2022/08/22 07:25:48;;;;;;;7.43;4.63;;;;;;;;;;5069175;28;20048;-68
2022/08/22 07:28:34;;;;;;;4.75;4.25;;;;;;;;;;5069407;28;20048;-69
2022/08/22 07:31:12;;;;;;;5.72;5.00;;;;;;;;;;5060675;28;20037;-69
2022/08/22 07:33:54;;;;;;;6.28;4.80;;;;;;;;;;5063250;28;20091;-69
2022/08/22 07:36:27;;;;;;;8.55;4.88;;;;;;;;;;5048986;28;20052;-69
2022/08/22 07:39:04;;;;;;;4.65;4.25;;;;;;;;;;5049131;28;20619;-69
2022/08/22 07:41:48;;;;;;;5.88;4.93;;;;;;;;;;5045426;28;20057;-68
2022/08/22 07:44:21;;;;;;;6.10;4.80;;;;;;;;;;5058406;28;20491;-69
2022/08/22 07:46:55;;;;;;;6.55;4.97;;;;;;;;;;5054489;28;20052;-69
2022/08/22 07:49:24;;;;;;;7.47;4.57;;;;;;;;;;5048722;28;20091;-69
2022/08/22 07:52:04;;;;;;;6.78;5.07;;;;;;;;;;5049051;28;20498;-69
2022/08/22 07:54:45;;;;;;;8.48;5.20;;;;;;;;;;5061177;28;20083;-69
2022/08/22 07:57:16;;;;;;;;;;;;;;;;;;5069189;28;20087;-70
2022/08/22 07:59:46;;;;;;;8.32;4.28;;;;;;;;;;5069056;28;20026;-69
2022/08/22 08:02:14;;;;;;;4.03;3.67;;;;;;;;;;5051381;28;20061;-69
2022/08/22 08:04:41;;;;;;;11.32;3.80;;;;;;;;;;5054021;28;20105;-69
2022/08/22 08:07:10;;;;;;;4.70;3.80;;;;;;;;;;5068220;28;20048;-69
2022/08/22 08:09:47;;;;;;;7.13;4.30;;;;;;;;;;5069105;28;20096;-69
2022/08/22 08:12:14;;;;;;;6.57;4.43;;;;;;;;;;5068984;28;20048;-69
2022/08/22 08:14:42;;;;;;;5.82;4.40;;;;;;;;;;5060900;28;20052;-68
2022/08/22 08:17:22;;;;;;;3.88;3.47;;;;;;;;;;5050820;28;20052;-68
2022/08/22 08:19:49;;;;;;;5.78;3.55;;;;;;;;;;5048618;28;20076;-70
2022/08/22 08:22:18;;;;;;;5.90;4.25;;;;;;;;;;5051726;28;20045;-68
2022/08/22 08:24:45;;;;;;;4.88;4.00;;;;;;;;;;5051274;28;20049;-68
2022/08/22 08:30:08;;;;;;;6.55;3.60;;;;;;;;;;5072188;28;20037;-69
2022/08/22 08:32:37;;;;;;;7.13;3.75;;;;;;;;;;5032423;28;20057;-69
2022/08/22 08:35:34;;;;;;;4.75;3.40;;;;;;;;;;5031576;28;20472;-69
2022/08/22 08:38:12;;;;;;;4.45;3.80;;;;;;;;;;5057620;28;20121;-69
2022/08/22 08:41:08;;;;;;;6.65;3.67;;;;;;;;;;5072195;28;20064;-69
2022/08/22 08:44:10;;;;;;;6.03;3.65;;;;;;;;;;5069054;28;20044;-69
2022/08/22 08:47:02;;;;;;;4.65;3.20;;;;;;;;;;5058249;28;20041;-69
2022/08/22 08:49:34;;;;;;;10.02;3.53;;;;;;;;;;5058671;28;20052;-70
2022/08/22 08:51:59;;;;;;;6.90;3.42;;;;;;;;;;5051924;28;20037;-69
2022/08/22 08:54:50;;;;;;;6.20;3.55;;;;;;;;;;5051786;28;20080;-69
2022/08/22 08:57:26;;;;;;;4.88;3.17;;;;;;;;;;5050614;28;20465;-69
2022/08/22 09:00:00;;;;;;;8.85;3.58;;;;;;;;;;5059515;28;20053;-69
2022/08/22 09:02:44;;;;;;;6.78;3.63;;;;;;;;;;5051077;28;20080;-70
2022/08/22 09:05:27;;;;;;;3.60;3.30;;;;;;;;;;5050922;28;20045;-70
2022/08/22 09:07:56;;;;;;;5.15;3.50;;;;;;;;;;5051685;28;20949;-69
2022/08/22 09:10:36;;;;;;;5.55;3.38;;;;;;;;;;5054138;28;20048;-70
2022/08/22 09:13:19;;;;;;;9.80;3.72;;;;;;;;;;5070782;28;20565;-69
2022/08/22 09:15:58;;;;;;;4.85;3.42;;;;;;;;;;5065356;28;20115;-69
2022/08/22 09:18:39;;;;;;;4.93;3.58;;;;;;;;;;5051425;28;20052;-69
2022/08/22 09:21:10;;;;;;;4.97;3.70;;;;;;;;;;5059591;28;20139;-69
2022/08/22 09:23:40;;;;;;;4.97;2.60;;;;;;;;;;5071290;28;20060;-69
2022/08/22 09:26:19;;;;;;;4.35;2.63;;;;;;;;;;5071280;28;20047;-68
2022/08/22 09:28:45;;;;;;;4.38;2.83;;;;;;;;;;5070030;28;20649;-69
2022/08/22 09:31:33;;;;;;;4.13;2.88;;;;;;;;;;5060262;28;20132;-69
2022/08/22 09:34:04;;;;;;;4.95;3.03;;;;;;;;;;5057279;28;20060;-69
2022/08/22 09:36:48;;;;;;;9.85;2.63;;;;;;;;;;5070907;28;20072;-69
2022/08/22 09:39:19;;;;;;;7.40;2.80;;;;;;;;;;5070301;28;20055;-69
2022/08/22 09:41:57;;;;;;;;;;;;;;;;;;5064851;28;20049;-69
2022/08/22 09:44:37;;;;;;;3.40;2.55;;;;;;;;;;5053841;28;19943;-69
2022/08/22 09:47:24;;;;;;;9.85;3.00;;;;;;;;;;5053372;28;20067;-69
2022/08/22 09:50:12;;;;;;;4.03;2.30;;;;;;;;;;5050781;28;20457;-69
2022/08/22 09:52:55;;;;;;;5.28;2.97;;;;;;;;;;5049774;28;20044;-69
2022/08/22 09:55:58;;;;;;;2.65;2.25;;;;;;;;;;5053677;28;20051;-68
2022/08/22 09:58:58;;;;;;;5.10;2.78;;;;;;;;;;5069462;28;20036;-69
2022/08/22 10:01:33;;;;;;;5.88;2.50;;;;;;;;;;5057150;28;20521;-68
2022/08/22 10:04:13;;;;;;;7.22;2.67;;;;;;;;;;5049571;28;20037;-69
2022/08/22 10:06:53;;;;;;;4.78;2.72;;;;;;;;;;5064464;28;20090;-69
2022/08/22 10:09:25;;;;;;;2.60;2.33;;;;;;;;;;5069821;28;20115;-69
2022/08/22 10:12:03;;;;;;;4.45;2.80;;;;;;;;;;5070320;28;20055;-69
2022/08/22 10:14:47;;;;;;;3.65;2.90;;;;;;;;;;5066310;28;20048;-69
2022/08/22 10:17:18;;;;;;;5.93;3.05;;;;;;;;;;5053009;28;20415;-69
2022/08/22 10:19:49;;;;;;;4.45;2.70;;;;;;;;;;5070042;28;20044;-69
2022/08/22 10:22:28;;;;;;;6.30;2.85;;;;;;;;;;5070257;28;20053;-68
2022/08/22 10:25:06;;;;;;;2.50;2.28;;;;;;;;;;5069896;28;20036;-69
2022/08/22 10:27:52;;;;;;;6.80;2.50;;;;;;;;;;5036193;28;20098;-69
2022/08/22 10:30:34;;;;;;;2.55;2.13;;;;;;;;;;5068274;28;20052;-69
2022/08/22 10:33:13;;;;;;;3.83;2.40;;;;;;;;;;5050154;28;20842;-69
2022/08/22 10:35:42;;;;;;;4.72;2.30;;;;;;;;;;5047553;28;20053;-69
2022/08/22 10:38:19;;;;;;;7.00;2.33;;;;;;;;;;5051062;28;20495;-68
2022/08/22 10:41:09;;;;;;;4.30;2.05;;;;;;;;;;5069654;28;20086;-68
2022/08/22 10:43:35;;;;;;;4.53;2.20;;;;;;;;;;5066177;28;20055;-68
2022/08/22 10:46:11;;;;;;;3.22;2.10;;;;;;;;;;5061534;28;20044;-68
2022/08/22 10:48:45;;;;;;;3.53;1.83;;;;;;;;;;5054653;28;20044;-68
2022/08/22 10:51:21;;;;;;;4.10;2.28;;;;;;;;;;5068990;28;20053;-68
2022/08/22 10:54:11;;;;;;;2.85;1.90;;;;;;;;;;5069499;28;20053;-68
2022/08/22 10:56:48;;;;;;;5.05;1.70;;;;;;;;;;5069329;28;20469;-68
2022/08/22 10:59:31;;;;;;;4.68;1.95;;;;;;;;;;5058654;28;20048;-68
2022/08/22 11:02:06;;;;;;;3.95;1.90;;;;;;;;;;5050919;28;20515;-68
2022/08/22 11:05:15;;;;;;;4.00;1.55;;;;;;;;;;5069648;28;20056;-68
2022/08/22 11:07:41;;;;;;;2.63;1.50;;;;;;;;;;5067365;28;20044;-68
2022/08/22 11:10:57;;;;;;;3.83;1.90;;;;;;;;;;5054070;28;20045;-68
2022/08/22 11:13:31;;;;;;;3.17;1.65;;;;;;;;;;4979637;28;20069;-68
2022/08/22 11:16:11;;;;;;;5.95;1.80;;;;;;;;;;4980314;28;20684;-69
2022/08/22 11:19:01;;;;;;;4.40;1.90;;;;;;;;;;5025364;28;20048;-68
2022/08/22 11:21:42;;;;;;;2.25;1.40;;;;;;;;;;5052640;28;20052;-68
2022/08/22 11:24:25;;;;;;;2.80;1.60;;;;;;;;;;5069039;28;20071;-68
2022/08/22 11:27:05;;;;;;;5.22;1.83;;;;;;;;;;5069163;28;20052;-68
2022/08/22 11:30:00;;;;;;;2.75;1.88;;;;;;;;;;5050854;28;20044;-69
2022/08/22 11:32:57;;;;;;;2.47;1.40;;;;;;;;;;5048680;28;20124;-68
2022/08/22 11:35:30;;;;;;;2.42;1.50;;;;;;;;;;5052712;28;20044;-68
2022/08/22 11:38:03;;;;;;;4.75;1.55;;;;;;;;;;5069110;28;20048;-69
2022/08/22 11:40:32;;;;;;;4.88;1.65;;;;;;;;;;5069215;28;20044;-68
2022/08/22 11:43:06;;;;;;;5.25;1.63;;;;;;;;;;5060381;28;20041;-70
2022/08/22 11:45:39;;;;;;;5.35;1.55;;;;;;;;;;5058127;28;20033;-69
2022/08/22 11:48:42;;;;;;;2.10;1.50;;;;;;;;;;5049124;28;20057;-69
2022/08/22 11:51:42;;;;;;;3.30;1.40;;;;;;;;;;5039626;28;20041;-69
2022/08/22 11:54:18;;;;;;;4.80;2.00;;;;;;;;;;5047972;28;20056;-69
2022/08/22 11:56:51;;;;;;;2.85;1.30;;;;;;;;;;5067648;28;20059;-68
2022/08/22 11:59:52;;;;;;;2.35;1.48;;;;;;;;;;5072369;28;20426;-68
2022/08/22 12:02:25;;;;;;;2.22;1.33;;;;;;;;;;5054420;28;20069;-68
2022/08/22 12:04:58;;;;;;;3.10;1.50;;;;;;;;;;5051900;28;20056;-69
2022/08/22 12:07:30;;;;;;;2.65;1.52;;;;;;;;;;5056602;28;20048;-68
2022/08/22 12:10:01;;;;;;;2.70;2.10;;;;;;;;;;5072651;28;20083;-69
2022/08/22 12:13:03;;;;;;;4.22;1.80;;;;;;;;;;5072516;28;20780;-68
2022/08/22 12:15:52;;;;;;;2.60;1.80;;;;;;;;;;5040577;28;20045;-69
2022/08/22 12:18:43;;;;;;;2.80;1.73;;;;;;;;;;5063547;28;20040;-68
2022/08/22 12:21:21;;;;;;;3.90;1.60;;;;;;;;;;5071958;28;20411;-70
2022/08/22 12:24:17;;;;;;;5.38;1.98;;;;;;;;;;5072522;28;20182;-68
2022/08/22 12:26:56;;;;;;;3.03;1.27;;;;;;;;;;5066182;28;20407;-68
2022/08/22 12:29:34;;;;;;;5.20;1.67;;;;;;;;;;5055517;28;20131;-68
2022/08/22 12:32:49;;;;;;;3.72;1.50;;;;;;;;;;5056248;28;20076;-67
2022/08/22 12:35:37;;;;;;;3.00;1.20;;;;;;;;;;5009261;28;20524;-67
2022/08/22 12:38:30;;;;;;;4.20;1.48;;;;;;;;;;5049459;28;20048;-69
2022/08/22 12:41:04;;;;;;;3.10;1.60;;;;;;;;;;5071722;28;20507;-68
2022/08/22 12:43:57;;;;;;;3.05;1.40;;;;;;;;;;5053253;28;20570;-68
2022/08/22 12:46:34;;;;;;;3.83;1.30;;;;;;;;;;5060796;28;20079;-68
2022/08/22 12:49:14;;;;;;;6.80;1.30;;;;;;;;;;5050456;28;20048;-68
2022/08/22 12:51:58;;;;;;;2.95;1.05;;;;;;;;;;5066063;28;20067;-68
2022/08/22 12:54:59;;;;;;;1.92;1.10;;;;;;;;;;5071981;28;20040;-69
2022/08/22 12:57:46;;;;;;;2.77;1.10;;;;;;;;;;5015286;28;20072;-68
2022/08/22 13:00:33;;;;;;;1.77;1.00;;;;;;;;;;5062708;28;20077;-68
2022/08/22 13:03:05;;;;;;;4.57;1.30;;;;;;;;;;5060158;28;20053;-69
2022/08/22 13:05:32;;;;;;;3.75;1.17;;;;;;;;;;5071643;28;20059;-68
2022/08/22 13:08:05;;;;;;;2.03;1.10;;;;;;;;;;5070996;28;20576;-69
2022/08/22 13:10:45;;;;;;;3.45;1.30;;;;;;;;;;5067138;28;20048;-68
2022/08/22 13:13:25;;;;;;;4.18;1.33;;;;;;;;;;5061124;28;20041;-68
2022/08/22 13:15:58;;;;;;;2.97;1.20;;;;;;;;;;5065299;28;20095;-68
2022/08/22 13:18:27;;;;;;;2.58;1.25;;;;;;;;;;5051446;28;20041;-68
2022/08/22 13:20:55;;;;;;;5.03;1.45;;;;;;;;;;5050362;28;20072;-69
2022/08/22 13:23:54;;;;;;;4.25;1.27;;;;;;;;;;5062028;28;20182;-68
2022/08/22 13:26:24;;;;;;;2.90;1.20;;;;;;;;;;5027231;28;20048;-68
2022/08/22 13:29:00;;;;;;;4.75;1.40;;;;;;;;;;5071274;28;20048;-68
2022/08/22 13:31:36;;;;;;;3.50;1.40;;;;;;;;;;5059597;28;20525;-68
2022/08/22 13:34:08;;;;;;;3.03;1.23;;;;;;;;;;5051938;28;20496;-68
2022/08/22 13:36:42;;;;;;;2.03;1.10;;;;;;;;;;5071130;28;20048;-68
2022/08/22 13:39:13;;;;;;;4.55;1.52;;;;;;;;;;5070506;28;20044;-68
2022/08/22 13:41:47;;;;;;;1.67;1.10;;;;;;;;;;5070752;28;20471;-67
2022/08/22 13:44:19;;;;;;;2.05;1.20;;;;;;;;;;5063472;28;20055;-67
2022/08/22 13:46:47;;;;;;;4.07;1.30;;;;;;;;;;5056686;28;20495;-68
2022/08/22 13:49:18;;;;;;;3.33;1.33;;;;;;;;;;5050640;28;20060;-68
2022/08/22 13:51:52;;;;;;;5.90;1.58;;;;;;;;;;5051054;28;20044;-68
2022/08/22 13:54:51;;;;;;;5.35;2.00;;;;;;;;;;5050056;28;20049;-68
2022/08/22 13:57:19;;;;;;;6.90;1.20;;;;;;;;;;5069317;28;20133;-68
2022/08/22 13:59:52;;;;;;;3.83;1.40;;;;;;;;;;5070705;28;20064;-68
2022/08/22 14:02:43;;;;;;;3.03;1.10;;;;;;;;;;5052432;28;20454;-68
2022/08/22 14:05:12;;;;;;;3.78;1.20;;;;;;;;;;5049236;28;20037;-69
2022/08/22 14:07:50;;;;;;;2.15;1.20;;;;;;;;;;5058752;28;20044;-67
2022/08/22 14:10:24;;;;;;;1.60;1.13;;;;;;;;;;5070519;28;20074;-68
2022/08/22 14:12:56;;;;;;;5.25;1.23;;;;;;;;;;5070191;28;20139;-69
2022/08/22 14:15:26;;;;;;;3.13;1.30;;;;;;;;;;5067143;28;20063;-69
2022/08/22 14:17:58;;;;;;;3.58;1.10;;;;;;;;;;5049237;28;20094;-68
2022/08/22 14:20:28;;;;;;;3.65;1.33;;;;;;;;;;5062119;28;20047;-68
2022/08/22 14:22:59;;;;;;;2.03;1.13;;;;;;;;;;5070516;28;20048;-68
2022/08/22 14:25:27;;;;;;;3.85;1.25;;;;;;;;;;5069471;28;20502;-68
2022/08/22 14:28:02;;;;;;;2.65;0.95;;;;;;;;;;5062618;28;20041;-68
2022/08/22 14:30:54;;;;;;;2.00;1.05;;;;;;;;;;5052272;28;20041;-69
2022/08/22 14:33:25;;;;;;;2.15;1.30;;;;;;;;;;5049492;28;20111;-68
2022/08/22 14:35:58;;;;;;;2.50;1.50;;;;;;;;;;5049516;28;20045;-68
2022/08/22 14:38:39;;;;;;;2.38;1.15;;;;;;;;;;5049045;28;20057;-69
2022/08/22 14:41:32;;;;;;;2.05;1.15;;;;;;;;;;5066759;28;20490;-68
2022/08/22 14:44:04;;;;;;;8.15;1.20;;;;;;;;;;5059645;28;20040;-69
2022/08/22 14:46:35;;;;;;;2.42;1.17;;;;;;;;;;5057579;28;20043;-69
2022/08/22 14:49:19;;;;;;;1.20;1.10;;;;;;;;;;5047843;28;20068;-69
2022/08/22 14:51:51;;;;;;;7.50;1.65;;;;;;;;;;5059656;28;20186;-69
2022/08/22 14:54:20;;;;;;;1.67;1.13;;;;;;;;;;5069431;28;20101;-68
2022/08/22 14:56:47;;;;;;;1.50;1.25;;;;;;;;;;5069161;28;20052;-69
2022/08/22 14:59:31;;;;;;;2.38;1.23;;;;;;;;;;5068933;28;20182;-68
2022/08/22 15:02:06;;;;;;;2.17;1.02;;;;;;;;;;5060763;28;20145;-68
2022/08/22 15:04:36;;;;;;;1.80;1.30;;;;;;;;;;5069656;28;20379;-68
2022/08/22 15:07:04;;;;;;;3.83;1.50;;;;;;;;;;5068819;28;20040;-68
2022/08/22 15:09:37;;;;;;;1.65;1.10;;;;;;;;;;5069667;28;20426;-68
2022/08/22 15:12:17;;;;;;;3.97;1.60;;;;;;;;;;5061406;28;20053;-68
2022/08/22 15:14:47;;;;;;;3.15;1.40;;;;;;;;;;5069223;28;20059;-67
2022/08/22 15:17:31;;;;;;;4.47;1.52;;;;;;;;;;5050878;28;20180;-68
2022/08/22 15:20:09;;;;;;;2.67;1.30;;;;;;;;;;5049476;28;20467;-68
2022/08/22 15:22:37;;;;;;;5.05;1.30;;;;;;;;;;5048873;28;20041;-68
2022/08/22 15:25:18;;;;;;;5.90;1.13;;;;;;;;;;5065937;28;20055;-68
2022/08/22 15:27:52;;;;;;;2.70;1.30;;;;;;;;;;5069541;28;20040;-68
2022/08/22 15:30:43;;;;;;;1.42;1.10;;;;;;;;;;5068846;28;20041;-68
2022/08/22 15:33:20;;;;;;;3.58;1.23;;;;;;;;;;5052214;28;20048;-68
2022/08/22 15:35:47;;;;;;;2.63;1.40;;;;;;;;;;5063608;28;20498;-68
2022/08/22 15:38:33;;;;;;;2.50;1.42;;;;;;;;;;5072804;28;20131;-68
2022/08/22 15:41:34;;;;;;;3.08;1.38;;;;;;;;;;5073364;28;20153;-68
2022/08/22 15:44:28;;;;;;;1.40;1.30;;;;;;;;;;5017869;28;20492;-68
2022/08/22 15:47:20;;;;;;;2.10;1.20;;;;;;;;;;5045139;28;20052;-68
2022/08/22 15:50:00;;;;;;;1.58;1.02;;;;;;;;;;5031021;28;20037;-68
2022/08/22 15:52:29;;;;;;;2.72;1.20;;;;;;;;;;5033158;28;20050;-68
2022/08/22 15:54:54;;;;;;;3.15;1.17;;;;;;;;;;5032967;28;20056;-68
2022/08/22 15:57:34;;;;;;;3.92;1.23;;;;;;;;;;5065428;28;20139;-68
2022/08/22 16:00:06;;;;;;;2.35;1.30;;;;;;;;;;5069840;28;20113;-68